Time;durP1;ratioP1;P1;durP2;ratioP2;P2;SDS_P1;SDS_P2;PMS_P1;PMS_P2;Temp;Humidity;BMP_temperature;BMP_pressure;BME280_temperature;BME280_humidity;BME280_pressure;Samples;Min_cycle;Max_cycle;Signal;HPM_P1;HPM_P2
2024/01/08 00:00:39;;;;;;;2.88;2.10;;;10.50;99.40;;;;;;5095082;28;20020;-45
2024/01/08 00:03:05;;;;;;;2.63;1.60;;;10.60;99.40;;;;;;5094985;28;20024;-45
2024/01/08 00:05:30;;;;;;;2.55;1.83;;;10.50;99.40;;;;;;5094942;28;20053;-45
2024/01/08 00:07:56;;;;;;;2.10;1.60;;;10.60;99.40;;;;;;5095408;28;20112;-45
2024/01/08 00:10:22;;;;;;;2.17;1.70;;;10.50;99.70;;;;;;5095471;28;20059;-43
2024/01/08 00:12:47;;;;;;;2.15;1.63;;;10.60;99.30;;;;;;5095093;28;20030;-44
2024/01/08 00:15:13;;;;;;;2.10;1.67;;;10.60;99.30;;;;;;5095420;28;20025;-44
2024/01/08 00:17:39;;;;;;;2.25;1.60;;;10.50;99.30;;;;;;5094881;28;20020;-45
2024/01/08 00:20:06;;;;;;;1.55;1.40;;;10.50;99.30;;;;;;5095249;28;20020;-43
2024/01/08 00:22:32;;;;;;;2.40;1.88;;;10.50;99.30;;;;;;5095061;28;20140;-44
2024/01/08 00:24:58;;;;;;;1.75;1.60;;;10.50;99.30;;;;;;5094566;28;20147;-45
2024/01/08 00:27:23;;;;;;;2.88;1.80;;;10.50;99.30;;;;;;5095447;28;20031;-43
2024/01/08 00:29:49;;;;;;;3.03;1.70;;;10.50;99.30;;;;;;5095397;28;20478;-45
2024/01/08 00:32:14;;;;;;;1.98;1.77;;;10.50;99.20;;;;;;5094379;28;20027;-45
2024/01/08 00:34:42;;;;;;;2.10;1.60;;;10.50;99.20;;;;;;5095852;28;20074;-44
2024/01/08 00:37:07;;;;;;;2.20;1.73;;;10.50;99.30;;;;;;5094722;28;20044;-44
2024/01/08 00:39:33;;;;;;;1.77;1.42;;;10.50;99.20;;;;;;5094243;28;20489;-44
2024/01/08 00:41:58;;;;;;;2.60;1.58;;;10.50;99.20;;;;;;5094358;28;20054;-44
2024/01/08 00:44:24;;;;;;;2.30;1.80;;;10.50;99.20;;;;;;5095404;28;20035;-44
2024/01/08 00:46:50;;;;;;;2.38;1.60;;;10.50;99.20;;;;;;5094877;28;20028;-45
2024/01/08 00:49:15;;;;;;;2.72;1.55;;;10.50;99.20;;;;;;5093791;28;20055;-45
2024/01/08 00:51:41;;;;;;;1.50;1.33;;;10.50;99.20;;;;;;5094063;28;20039;-43
2024/01/08 00:54:07;;;;;;;2.03;1.38;;;10.50;99.20;;;;;;5093856;28;20028;-45
2024/01/08 00:56:32;;;;;;;3.20;1.73;;;10.50;99.20;;;;;;5094751;28;20031;-44
2024/01/08 00:58:58;;;;;;;1.33;1.15;;;10.50;99.20;;;;;;5094251;28;20427;-45
2024/01/08 01:01:26;;;;;;;2.00;1.48;;;10.50;99.20;;;;;;5094388;28;20057;-45
2024/01/08 01:03:51;;;;;;;2.25;1.40;;;10.50;99.20;;;;;;5093838;28;20453;-45
2024/01/08 01:06:21;;;;;;;1.70;1.50;;;10.50;99.20;;;;;;5093930;28;20430;-44
2024/01/08 01:08:47;;;;;;;1.33;1.23;;;10.50;99.20;;;;;;5094339;28;20028;-44
2024/01/08 01:11:14;;;;;;;1.42;1.20;;;10.40;99.20;;;;;;5094576;28;20558;-44
2024/01/08 01:13:40;;;;;;;2.00;1.40;;;10.40;99.20;;;;;;5093953;28;20081;-44
2024/01/08 01:16:06;;;;;;;1.98;1.38;;;10.50;99.20;;;;;;5095140;28;20028;-44
2024/01/08 01:18:31;;;;;;;1.80;1.50;;;10.40;99.10;;;;;;5093445;28;20024;-44
2024/01/08 01:20:58;;;;;;;2.38;1.42;;;10.50;99.10;;;;;;5094947;28;20092;-44
2024/01/08 01:23:24;;;;;;;1.88;1.40;;;10.40;99.10;;;;;;5093414;28;20043;-44
2024/01/08 01:25:49;;;;;;;1.52;1.20;;;10.50;99.10;;;;;;5093637;28;20028;-45
2024/01/08 01:28:15;;;;;;;2.10;1.50;;;10.40;99.10;;;;;;5093182;28;20393;-45
2024/01/08 01:30:40;;;;;;;2.15;1.35;;;10.40;99.10;;;;;;5093177;28;20144;-45
2024/01/08 01:33:06;;;;;;;1.50;1.30;;;10.40;99.10;;;;;;5093016;28;20482;-45
2024/01/08 01:35:32;;;;;;;1.63;1.30;;;10.40;99.10;;;;;;5093142;28;20024;-43
2024/01/08 01:37:58;;;;;;;1.98;1.48;;;10.40;99.10;;;;;;5093315;28;20028;-44
2024/01/08 01:40:27;;;;;;;2.30;1.50;;;10.40;99.10;;;;;;5094077;28;20499;-43
2024/01/08 01:42:54;;;;;;;2.20;1.45;;;10.40;99.10;;;;;;5092974;28;20470;-44
2024/01/08 01:45:23;;;;;;;1.42;1.27;;;10.40;99.10;;;;;;5093821;28;20032;-45
2024/01/08 01:47:51;;;;;;;2.35;1.50;;;10.40;99.10;;;;;;5093080;28;20053;-44
2024/01/08 01:50:17;;;;;;;1.80;1.50;;;10.40;99.00;;;;;;5094112;28;20103;-45
2024/01/08 01:52:43;;;;;;;2.08;1.40;;;10.40;99.00;;;;;;5093763;28;20047;-44
2024/01/08 01:55:10;;;;;;;1.80;1.30;;;10.40;99.10;;;;;;5094272;28;20060;-45
2024/01/08 01:57:36;;;;;;;2.00;1.33;;;10.40;99.10;;;;;;5093701;28;20024;-45
2024/01/08 02:00:03;;;;;;;2.67;1.20;;;10.40;99.00;;;;;;5093071;28;20537;-43
2024/01/08 02:02:29;;;;;;;1.27;1.13;;;10.40;99.00;;;;;;5093516;28;20028;-44
2024/01/08 02:04:57;;;;;;;2.42;1.30;;;10.40;99.00;;;;;;5093925;28;20020;-44
2024/01/08 02:07:22;;;;;;;1.77;1.40;;;10.40;99.00;;;;;;5093107;28;20028;-45
2024/01/08 02:09:48;;;;;;;1.60;1.40;;;10.40;99.00;;;;;;5094516;28;20095;-45
2024/01/08 02:12:18;;;;;;;1.70;1.40;;;10.40;99.00;;;;;;5092509;28;20493;-44
2024/01/08 02:14:44;;;;;;;2.13;1.60;;;10.40;99.00;;;;;;5093931;28;20070;-44
2024/01/08 02:17:10;;;;;;;1.90;1.63;;;10.30;99.00;;;;;;5092266;28;20466;-44
2024/01/08 02:19:35;;;;;;;1.50;1.20;;;10.30;99.00;;;;;;5093325;28;20045;-44
2024/01/08 02:22:01;;;;;;;1.40;1.20;;;10.30;99.00;;;;;;5092174;28;20056;-44
2024/01/08 02:24:28;;;;;;;1.75;1.15;;;10.40;99.00;;;;;;5092147;28;20486;-45
2024/01/08 02:26:57;;;;;;;2.00;1.35;;;10.40;99.00;;;;;;5092558;28;20028;-44
2024/01/08 02:29:24;;;;;;;1.80;1.33;;;10.40;99.00;;;;;;5091951;28;20069;-44
2024/01/08 02:31:50;;;;;;;1.40;1.30;;;10.40;99.00;;;;;;5092034;28;20053;-44
2024/01/08 02:34:15;;;;;;;1.80;1.48;;;10.40;99.00;;;;;;5091837;28;20064;-45
2024/01/08 02:36:41;;;;;;;1.98;1.40;;;10.40;99.00;;;;;;5093541;28;20112;-44
2024/01/08 02:39:06;;;;;;;1.20;1.10;;;10.30;98.90;;;;;;5091870;28;20474;-44
2024/01/08 02:41:32;;;;;;;1.90;1.63;;;10.30;98.90;;;;;;5092601;28;20383;-45
2024/01/08 02:43:58;;;;;;;2.50;1.10;;;10.30;98.90;;;;;;5092542;28;20023;-43
2024/01/08 02:46:23;;;;;;;1.88;1.45;;;10.40;99.00;;;;;;5091920;28;20105;-45
2024/01/08 02:48:49;;;;;;;1.90;1.60;;;10.30;98.90;;;;;;5091707;28;20020;-45
2024/01/08 02:51:15;;;;;;;1.52;1.40;;;10.30;98.90;;;;;;5092465;28;20058;-44
2024/01/08 02:53:40;;;;;;;2.45;1.38;;;10.30;98.90;;;;;;5091594;28;20024;-44
2024/01/08 02:56:06;;;;;;;1.63;1.50;;;10.30;98.90;;;;;;5091594;28;20069;-45
2024/01/08 02:58:32;;;;;;;2.38;1.58;;;10.30;98.90;;;;;;5091514;28;20028;-44
2024/01/08 03:00:59;;;;;;;1.38;1.25;;;10.30;98.90;;;;;;5091717;28;20071;-44
2024/01/08 03:03:25;;;;;;;1.73;1.38;;;10.30;99.00;;;;;;5091535;28;20022;-45
2024/01/08 03:05:51;;;;;;;2.85;1.20;;;10.40;99.00;;;;;;5093092;28;20036;-44
2024/01/08 03:08:16;;;;;;;1.42;1.20;;;10.40;99.10;;;;;;5091625;28;20071;-44
2024/01/08 03:10:42;;;;;;;1.63;1.35;;;10.40;99.00;;;;;;5092025;28;20020;-45
2024/01/08 03:13:08;;;;;;;1.52;1.30;;;10.40;99.00;;;;;;5092072;28;20466;-44
2024/01/08 03:15:33;;;;;;;1.40;1.30;;;10.40;98.90;;;;;;5091435;28;20375;-44
2024/01/08 03:17:59;;;;;;;1.35;1.23;;;10.50;98.90;;;;;;5092326;28;20020;-45
2024/01/08 03:20:25;;;;;;;2.03;1.40;;;10.50;98.80;;;;;;5092591;28;20497;-43
2024/01/08 03:22:54;;;;;;;2.00;1.27;;;10.50;98.70;;;;;;5092755;28;20024;-45
2024/01/08 03:25:19;;;;;;;1.75;1.50;;;10.60;98.70;;;;;;5091614;28;20521;-45
2024/01/08 03:27:45;;;;;;;1.67;1.38;;;10.60;98.60;;;;;;5091239;28;20093;-44
2024/01/08 03:30:11;;;;;;;2.38;1.60;;;10.60;98.60;;;;;;5092029;28;20159;-45
2024/01/08 03:32:36;;;;;;;1.90;1.40;;;10.60;98.50;;;;;;5091447;28;20052;-44
2024/01/08 03:35:02;;;;;;;2.22;1.58;;;10.60;98.40;;;;;;5091857;28;20482;-45
2024/01/08 03:37:28;;;;;;;1.77;1.38;;;10.60;98.40;;;;;;5093723;28;20025;-45
2024/01/08 03:39:53;;;;;;;2.63;1.58;;;10.60;98.40;;;;;;5091063;28;20026;-44
2024/01/08 03:42:19;;;;;;;2.22;1.42;;;10.70;98.30;;;;;;5091249;28;20047;-45
2024/01/08 03:44:45;;;;;;;1.80;1.40;;;10.60;98.30;;;;;;5091134;28;20547;-45
2024/01/08 03:47:11;;;;;;;1.80;1.40;;;10.70;98.30;;;;;;5091066;28;20028;-43
2024/01/08 03:49:37;;;;;;;1.67;1.38;;;10.70;98.30;;;;;;5091023;28;20110;-44
2024/01/08 03:52:02;;;;;;;1.60;1.42;;;10.70;98.20;;;;;;5091597;28;20529;-44
2024/01/08 03:54:29;;;;;;;1.73;1.30;;;10.70;98.20;;;;;;5091551;28;20028;-45
2024/01/08 03:56:55;;;;;;;2.08;1.33;;;10.70;98.20;;;;;;5091509;28;20543;-43
2024/01/08 03:59:20;;;;;;;2.03;1.40;;;10.60;98.10;;;;;;5091089;28;20020;-45
2024/01/08 04:01:46;;;;;;;2.13;1.70;;;10.70;98.20;;;;;;5090885;28;20028;-45
2024/01/08 04:04:12;;;;;;;3.17;1.70;;;10.70;98.10;;;;;;5091057;28;20069;-43
2024/01/08 04:06:38;;;;;;;2.03;1.60;;;10.60;98.10;;;;;;5090756;28;20065;-44
2024/01/08 04:09:04;;;;;;;2.05;1.48;;;10.70;98.10;;;;;;5091283;28;20039;-44
2024/01/08 04:11:29;;;;;;;1.50;1.35;;;10.60;98.10;;;;;;5090881;28;20028;-44
2024/01/08 04:13:55;;;;;;;1.60;1.38;;;10.70;98.10;;;;;;5091281;28;20069;-44
2024/01/08 04:16:21;;;;;;;1.90;1.48;;;10.70;98.10;;;;;;5091782;28;20024;-44
2024/01/08 04:18:46;;;;;;;2.10;1.42;;;10.60;98.00;;;;;;5090780;28;20024;-44
2024/01/08 04:21:16;;;;;;;1.83;1.48;;;10.60;98.00;;;;;;5090690;28;20020;-43
2024/01/08 04:23:42;;;;;;;1.35;1.25;;;10.60;98.00;;;;;;5090546;28;20032;-44
2024/01/08 04:26:15;;;;;;;2.08;1.30;;;10.60;98.00;;;;;;5091752;28;20081;-45
2024/01/08 04:28:42;;;;;;;1.50;1.27;;;10.60;98.00;;;;;;5091881;28;20234;-44
2024/01/08 04:31:17;;;;;;;1.98;1.60;;;10.60;98.00;;;;;;5092143;28;20024;-45
2024/01/08 04:33:42;;;;;;;1.60;1.40;;;10.60;98.00;;;;;;5091357;28;20020;-45
2024/01/08 04:36:08;;;;;;;1.98;1.48;;;10.60;98.00;;;;;;5094253;28;20024;-44
2024/01/08 04:38:33;;;;;;;1.73;1.40;;;10.60;98.00;;;;;;5095311;28;20036;-44
2024/01/08 04:40:59;;;;;;;1.70;1.60;;;10.60;97.90;;;;;;5094437;28;20478;-44
2024/01/08 04:43:25;;;;;;;1.75;1.50;;;10.60;98.00;;;;;;5094959;28;20710;-45
2024/01/08 04:45:50;;;;;;;1.90;1.48;;;10.60;98.00;;;;;;5094118;28;20249;-44
2024/01/08 04:48:16;;;;;;;3.20;1.38;;;10.60;98.00;;;;;;5093996;28;20116;-44
2024/01/08 04:50:41;;;;;;;1.73;1.58;;;10.60;98.00;;;;;;5094078;28;20064;-44
2024/01/08 04:53:07;;;;;;;1.85;1.40;;;10.50;98.00;;;;;;5094397;28;20390;-44
2024/01/08 04:55:33;;;;;;;1.85;1.58;;;10.60;98.00;;;;;;5093942;28;20104;-44
2024/01/08 04:57:58;;;;;;;2.20;1.48;;;10.50;98.00;;;;;;5093836;28;20362;-44
2024/01/08 05:00:24;;;;;;;2.17;1.45;;;10.50;98.00;;;;;;5093890;28;20020;-45
2024/01/08 05:02:49;;;;;;;1.95;1.50;;;10.50;97.90;;;;;;5094085;28;20080;-45
2024/01/08 05:05:16;;;;;;;1.33;1.23;;;10.50;98.00;;;;;;5093862;28;20089;-44
2024/01/08 05:07:41;;;;;;;2.50;1.80;;;10.50;98.00;;;;;;5093745;28;20032;-44
2024/01/08 05:10:07;;;;;;;2.13;1.52;;;10.50;98.00;;;;;;5093779;28;20099;-44
2024/01/08 05:12:33;;;;;;;2.10;1.50;;;10.50;98.00;;;;;;5093751;28;20031;-45
2024/01/08 05:14:58;;;;;;;2.10;1.48;;;10.50;97.90;;;;;;5093791;28;20090;-44
2024/01/08 05:17:24;;;;;;;1.70;1.45;;;10.50;97.90;;;;;;5094227;28;20024;-44
2024/01/08 05:19:52;;;;;;;2.75;1.52;;;10.50;97.90;;;;;;5093489;28;20032;-44
2024/01/08 05:22:18;;;;;;;2.13;1.42;;;10.40;97.90;;;;;;5094441;28;20394;-44
2024/01/08 05:24:45;;;;;;;2.25;1.60;;;10.40;97.90;;;;;;5094257;28;20032;-44
2024/01/08 05:27:11;;;;;;;2.88;1.70;;;10.40;97.90;;;;;;5093968;28;20056;-44
2024/01/08 05:29:37;;;;;;;2.22;1.65;;;10.50;97.90;;;;;;5093275;28;20032;-43
2024/01/08 05:32:03;;;;;;;5.38;1.50;;;10.40;97.90;;;;;;5094130;28;20051;-44
2024/01/08 05:34:29;;;;;;;1.40;1.30;;;10.40;97.90;;;;;;5094210;28;20545;-44
2024/01/08 05:36:56;;;;;;;4.90;1.60;;;10.40;97.90;;;;;;5094183;28;20099;-44
2024/01/08 05:39:21;;;;;;;2.90;1.90;;;10.40;97.90;;;;;;5093372;28;20020;-44
2024/01/08 05:41:47;;;;;;;2.78;1.60;;;10.30;97.90;;;;;;5093113;28;20028;-44
2024/01/08 05:44:13;;;;;;;2.05;1.80;;;10.40;97.90;;;;;;5093717;28;20024;-44
2024/01/08 05:46:42;;;;;;;1.80;1.42;;;10.40;97.90;;;;;;5092813;28;20393;-44
2024/01/08 05:49:09;;;;;;;2.33;1.70;;;10.30;97.90;;;;;;5093078;28;20028;-44
2024/01/08 05:51:35;;;;;;;2.42;1.77;;;10.30;97.90;;;;;;5093618;28;20036;-44
2024/01/08 05:54:00;;;;;;;1.75;1.60;;;10.30;97.90;;;;;;5092918;28;20035;-44
2024/01/08 05:56:26;;;;;;;1.70;1.60;;;10.30;97.90;;;;;;5093314;28;20085;-45
2024/01/08 05:58:52;;;;;;;1.80;1.50;;;10.30;97.90;;;;;;5093187;28;20046;-44
2024/01/08 06:01:17;;;;;;;2.58;1.60;;;10.30;97.90;;;;;;5092600;28;20099;-44
2024/01/08 06:03:44;;;;;;;2.72;1.75;;;10.30;98.00;;;;;;5092836;28;20378;-44
2024/01/08 06:06:15;;;;;;;1.90;1.60;;;10.30;97.90;;;;;;5092654;28;20096;-45
2024/01/08 06:08:41;;;;;;;2.17;1.75;;;10.30;97.90;;;;;;5093197;28;20489;-44
2024/01/08 06:11:07;;;;;;;1.98;1.60;;;10.30;97.90;;;;;;5093068;28;20035;-42
2024/01/08 06:13:34;;;;;;;2.08;1.63;;;10.30;98.00;;;;;;5092448;28;20095;-44
2024/01/08 06:16:00;;;;;;;1.58;1.40;;;10.30;97.90;;;;;;5093275;28;20028;-44
2024/01/08 06:18:27;;;;;;;2.05;1.77;;;10.30;97.90;;;;;;5093047;28;20012;-44
2024/01/08 06:20:53;;;;;;;2.85;1.65;;;10.20;97.90;;;;;;5092425;28;20056;-43
2024/01/08 06:23:18;;;;;;;1.88;1.70;;;10.20;97.90;;;;;;5092870;28;20567;-44
2024/01/08 06:25:44;;;;;;;2.20;1.80;;;10.30;98.30;;;;;;5092343;28;20032;-45
2024/01/08 06:28:10;;;;;;;4.10;1.90;;;10.20;97.90;;;;;;5092114;28;20036;-44
2024/01/08 06:30:35;;;;;;;2.50;1.90;;;10.30;97.90;;;;;;5092275;28;20035;-44
2024/01/08 06:33:01;;;;;;;2.83;1.90;;;10.30;98.00;;;;;;5092477;28;20024;-45
2024/01/08 06:35:27;;;;;;;2.25;1.52;;;10.20;97.90;;;;;;5091320;28;20118;-45
2024/01/08 06:37:54;;;;;;;2.58;2.00;;;10.20;97.90;;;;;;5093011;28;20107;-45
2024/01/08 06:40:19;;;;;;;2.40;1.75;;;10.20;97.90;;;;;;5092345;28;20027;-44
2024/01/08 06:42:45;;;;;;;4.57;2.40;;;10.20;97.90;;;;;;5092560;28;20016;-43
2024/01/08 06:45:11;;;;;;;2.65;1.90;;;10.20;97.90;;;;;;5092122;28;20051;-44
2024/01/08 06:47:36;;;;;;;3.80;1.77;;;10.20;98.20;;;;;;5091870;28;20035;-44
2024/01/08 06:50:03;;;;;;;2.40;2.00;;;10.20;97.90;;;;;;5092492;28;20065;-44
2024/01/08 06:52:29;;;;;;;3.45;2.05;;;10.20;97.90;;;;;;5092170;28;20020;-43
2024/01/08 06:54:55;;;;;;;2.90;2.28;;;10.20;97.90;;;;;;5091696;28;20084;-44
2024/01/08 06:57:20;;;;;;;3.85;1.98;;;10.20;97.90;;;;;;5091242;28;20028;-43
2024/01/08 06:59:46;;;;;;;2.60;1.90;;;10.20;97.80;;;;;;5091895;28;20024;-45
2024/01/08 07:02:11;;;;;;;4.75;2.25;;;10.10;97.80;;;;;;5091676;28;20397;-44
2024/01/08 07:04:37;;;;;;;3.85;1.90;;;10.20;97.80;;;;;;5068689;28;20470;-43
2024/01/08 07:07:04;;;;;;;3.88;2.20;;;10.20;97.80;;;;;;5091583;28;20039;-45
2024/01/08 07:09:30;;;;;;;3.33;2.05;;;10.20;97.80;;;;;;5091958;28;20028;-44
2024/01/08 07:11:55;;;;;;;2.50;2.00;;;10.10;97.80;;;;;;5091496;28;20024;-45
2024/01/08 07:14:21;;;;;;;2.95;2.15;;;10.20;97.80;;;;;;5091371;28;20035;-45
2024/01/08 07:16:46;;;;;;;3.20;2.20;;;10.10;97.80;;;;;;5091724;28;20016;-45
2024/01/08 07:19:12;;;;;;;3.25;1.98;;;10.20;97.80;;;;;;5092200;28;20020;-43
2024/01/08 07:21:38;;;;;;;4.25;2.72;;;10.10;97.80;;;;;;5092466;28;20387;-45
2024/01/08 07:24:04;;;;;;;3.53;2.25;;;10.10;97.80;;;;;;5092581;28;20044;-45
2024/01/08 07:26:29;;;;;;;4.78;2.30;;;10.10;97.80;;;;;;5092208;28;20036;-44
2024/01/08 07:28:55;;;;;;;2.55;2.03;;;10.10;97.80;;;;;;5092715;28;20024;-44
2024/01/08 07:31:21;;;;;;;2.78;2.00;;;10.10;97.80;;;;;;5092853;28;20020;-45
2024/01/08 07:33:46;;;;;;;3.60;2.13;;;10.10;97.70;;;;;;5091729;28;20493;-44
2024/01/08 07:36:13;;;;;;;2.33;1.60;;;10.10;97.80;;;;;;5092566;28;20055;-43
2024/01/08 07:38:39;;;;;;;2.88;1.90;;;10.10;97.70;;;;;;5091411;28;20103;-45
2024/01/08 07:41:07;;;;;;;2.47;2.10;;;10.10;97.70;;;;;;5092471;28;20426;-45
2024/01/08 07:43:34;;;;;;;2.50;1.95;;;10.10;97.70;;;;;;5092135;28;20035;-45
2024/01/08 07:45:59;;;;;;;2.50;1.95;;;10.10;97.70;;;;;;5092845;28;20035;-44
2024/01/08 07:48:26;;;;;;;2.40;1.70;;;10.10;97.70;;;;;;5091415;28;20024;-45
2024/01/08 07:50:52;;;;;;;2.90;1.80;;;10.10;97.70;;;;;;5091385;28;20397;-45
2024/01/08 07:53:17;;;;;;;3.47;2.17;;;10.00;97.70;;;;;;5091286;28;20476;-45
2024/01/08 07:55:43;;;;;;;2.30;1.80;;;10.10;97.70;;;;;;5091517;28;20038;-43
2024/01/08 07:58:13;;;;;;;2.83;2.00;;;10.10;97.70;;;;;;5091914;28;20020;-44
2024/01/08 08:00:39;;;;;;;2.28;1.83;;;10.10;97.70;;;;;;5091243;28;20020;-45
2024/01/08 08:03:05;;;;;;;2.95;2.00;;;10.00;97.70;;;;;;5090834;28;20032;-45
2024/01/08 08:05:31;;;;;;;2.67;2.00;;;10.00;97.60;;;;;;5092591;28;20052;-44
2024/01/08 08:07:57;;;;;;;3.53;2.20;;;10.10;97.70;;;;;;5089282;28;20515;-45
2024/01/08 08:10:22;;;;;;;4.03;2.53;;;10.00;97.60;;;;;;5094315;28;20042;-45
2024/01/08 08:12:48;;;;;;;3.53;2.20;;;10.00;97.60;;;;;;5095827;28;20071;-44
2024/01/08 08:15:13;;;;;;;2.80;1.90;;;10.00;97.60;;;;;;5095286;28;20031;-44
2024/01/08 08:17:42;;;;;;;2.40;1.80;;;10.00;97.60;;;;;;5094650;28;20651;-45
2024/01/08 08:20:09;;;;;;;2.47;2.00;;;10.00;97.70;;;;;;5094999;28;20020;-45
2024/01/08 08:22:36;;;;;;;2.63;1.92;;;10.00;97.60;;;;;;5094609;28;20542;-44
2024/01/08 08:25:02;;;;;;;3.28;2.03;;;10.00;97.70;;;;;;5094511;28;20043;-44
2024/01/08 08:27:28;;;;;;;3.00;2.20;;;10.00;97.70;;;;;;5094552;28;20387;-44
2024/01/08 08:29:54;;;;;;;2.22;1.88;;;10.00;97.70;;;;;;5094894;28;20035;-44
2024/01/08 08:32:20;;;;;;;2.22;1.92;;;10.00;97.70;;;;;;5094975;28;20119;-45
2024/01/08 08:34:45;;;;;;;2.85;1.90;;;10.00;97.70;;;;;;5094842;28;20107;-45
2024/01/08 08:37:11;;;;;;;3.53;1.92;;;10.00;97.70;;;;;;5094468;28;20390;-44
2024/01/08 08:39:38;;;;;;;3.00;2.15;;;10.00;97.70;;;;;;5094460;28;20032;-44
2024/01/08 08:42:04;;;;;;;2.42;1.95;;;10.00;97.60;;;;;;5094270;28;20024;-44
2024/01/08 08:44:30;;;;;;;2.83;2.00;;;10.00;97.60;;;;;;5094900;28;20027;-45
2024/01/08 08:46:56;;;;;;;3.20;2.22;;;10.00;97.60;;;;;;5095357;28;20028;-45
2024/01/08 08:49:21;;;;;;;2.60;1.85;;;10.00;97.60;;;;;;5094706;28;20032;-44
2024/01/08 08:51:47;;;;;;;3.22;2.33;;;10.10;97.60;;;;;;5094092;28;20027;-45
2024/01/08 08:54:12;;;;;;;2.88;2.08;;;10.10;97.60;;;;;;5094034;28;20035;-45
2024/01/08 08:56:38;;;;;;;3.53;2.22;;;10.10;97.60;;;;;;5093985;28;20078;-43
2024/01/08 08:59:04;;;;;;;3.35;2.35;;;10.20;97.60;;;;;;5093844;28;20073;-44
2024/01/08 09:01:30;;;;;;;3.30;2.45;;;10.20;97.60;;;;;;5093957;28;20462;-45
2024/01/08 09:03:56;;;;;;;4.32;2.53;;;10.20;97.50;;;;;;5093594;28;20020;-45
2024/01/08 09:06:27;;;;;;;3.05;2.00;;;10.20;97.50;;;;;;5094264;28;20095;-45
2024/01/08 09:08:54;;;;;;;3.47;2.38;;;10.20;97.40;;;;;;5093992;28;20020;-43
2024/01/08 09:11:20;;;;;;;3.00;2.40;;;10.30;97.40;;;;;;5093757;28;20398;-43
2024/01/08 09:13:49;;;;;;;4.57;2.22;;;10.30;97.40;;;;;;5093706;28;20021;-45
2024/01/08 09:16:15;;;;;;;3.22;2.08;;;10.40;97.30;;;;;;5093944;28;20023;-44
2024/01/08 09:18:42;;;;;;;2.75;1.98;;;10.40;97.30;;;;;;5094023;28;20016;-45
2024/01/08 09:21:11;;;;;;;2.60;2.05;;;10.40;97.30;;;;;;5094567;28;20020;-41
2024/01/08 09:23:41;;;;;;;3.63;2.88;;;10.40;97.20;;;;;;5093276;28;20024;-44
2024/01/08 09:26:07;;;;;;;3.75;2.50;;;10.50;97.20;;;;;;5093512;28;20032;-43
2024/01/08 09:28:33;;;;;;;3.83;2.60;;;10.50;97.10;;;;;;5093390;28;20389;-43
2024/01/08 09:31:00;;;;;;;3.42;2.42;;;10.50;97.10;;;;;;5093841;28;20103;-45
2024/01/08 09:33:26;;;;;;;2.95;2.30;;;10.60;97.10;;;;;;5094246;28;20478;-45
2024/01/08 09:35:52;;;;;;;2.63;2.28;;;10.60;97.00;;;;;;5093390;28;20035;-43
2024/01/08 09:38:18;;;;;;;3.40;2.25;;;10.60;97.00;;;;;;5093294;28;20179;-45
2024/01/08 09:40:44;;;;;;;3.13;2.33;;;10.70;97.00;;;;;;5093675;28;20031;-43
2024/01/08 09:43:12;;;;;;;2.88;2.15;;;10.70;96.90;;;;;;5093622;28;20035;-44
2024/01/08 09:48:46;;;;;;;3.65;2.65;;;10.70;96.80;;;;;;5092698;28;20520;-44
2024/01/08 09:51:12;;;;;;;3.30;2.22;;;10.80;96.80;;;;;;5092972;28;20038;-43
2024/01/08 09:53:38;;;;;;;3.45;2.15;;;10.80;96.70;;;;;;5092840;28;20020;-44
2024/01/08 09:56:05;;;;;;;2.95;2.30;;;10.90;96.70;;;;;;5093158;28;20024;-44
2024/01/08 09:58:30;;;;;;;3.10;2.30;;;10.90;96.60;;;;;;5092734;28;20098;-45
2024/01/08 10:00:56;;;;;;;2.75;2.10;;;10.90;96.60;;;;;;5092914;28;20028;-45
2024/01/08 10:03:23;;;;;;;2.65;2.15;;;10.90;96.50;;;;;;5092804;28;20024;-45
2024/01/08 10:05:48;;;;;;;2.95;2.35;;;10.90;96.40;;;;;;5093178;28;20028;-44
2024/01/08 10:08:14;;;;;;;2.67;2.15;;;11.00;95.80;;;;;;5093376;28;20048;-43
2024/01/08 10:10:39;;;;;;;2.80;2.22;;;10.90;93.50;;;;;;5093106;28;20477;-44
2024/01/08 10:13:09;;;;;;;2.92;2.50;;;10.90;92.90;;;;;;5093179;28;20016;-43
2024/01/08 10:15:35;;;;;;;3.38;2.20;;;10.80;93.10;;;;;;5092726;28;20462;-40
2024/01/08 10:18:02;;;;;;;3.33;2.63;;;10.80;93.40;;;;;;5092380;28;20032;-43
2024/01/08 10:20:29;;;;;;;2.63;2.20;;;10.80;93.60;;;;;;5092672;28;20149;-40
2024/01/08 10:23:05;;;;;;;4.43;2.22;;;10.80;93.80;;;;;;5092316;28;20032;-44
2024/01/08 10:25:31;;;;;;;3.22;2.53;;;10.80;94.00;;;;;;5092239;28;20506;-41
2024/01/08 10:27:56;;;;;;;3.60;2.40;;;10.80;94.20;;;;;;5092015;28;20035;-44
2024/01/08 10:30:23;;;;;;;2.47;2.20;;;10.90;94.30;;;;;;5092659;28;20470;-43
2024/01/08 10:32:49;;;;;;;3.63;2.30;;;10.90;94.40;;;;;;5091388;28;20028;-43
2024/01/08 10:35:16;;;;;;;3.25;2.45;;;10.90;94.50;;;;;;5092068;28;20027;-43
2024/01/08 10:37:43;;;;;;;3.60;2.38;;;11.00;94.50;;;;;;5092223;28;20042;-44
2024/01/08 10:40:12;;;;;;;3.22;2.65;;;11.00;94.60;;;;;;5092019;28;20025;-44
2024/01/08 10:42:40;;;;;;;2.75;2.15;;;11.00;94.60;;;;;;5091865;28;20115;-44
2024/01/08 10:45:07;;;;;;;3.60;2.17;;;11.00;94.70;;;;;;5092659;28;20024;-44
2024/01/08 10:47:35;;;;;;;3.40;2.60;;;11.10;94.70;;;;;;5091951;28;20494;-44
2024/01/08 10:50:05;;;;;;;3.15;2.20;;;11.10;94.70;;;;;;5092106;28;20386;-44
2024/01/08 10:52:34;;;;;;;3.47;2.05;;;11.10;94.80;;;;;;5091939;28;20113;-43
2024/01/08 10:55:01;;;;;;;3.17;2.30;;;11.10;94.80;;;;;;5091597;28;20028;-42
2024/01/08 10:57:55;;;;;;;3.63;2.58;;;11.10;94.80;;;;;;5091953;28;20039;-43
2024/01/08 11:00:21;;;;;;;3.60;2.30;;;11.10;94.80;;;;;;5091760;28;20539;-44
2024/01/08 11:02:48;;;;;;;2.78;2.05;;;11.20;94.80;;;;;;5107245;28;20081;-44
2024/01/08 11:05:15;;;;;;;2.65;1.85;;;11.20;94.80;;;;;;5091550;28;20027;-44
2024/01/08 11:07:41;;;;;;;3.75;2.53;;;11.20;94.80;;;;;;5092829;28;20024;-43
2024/01/08 11:10:09;;;;;;;4.10;2.33;;;11.20;94.80;;;;;;5091789;28;20563;-44
2024/01/08 11:12:41;;;;;;;2.50;2.13;;;11.20;94.80;;;;;;5091533;28;20394;-43
2024/01/08 11:15:08;;;;;;;2.92;2.03;;;11.20;94.80;;;;;;5092313;28;20046;-44
2024/01/08 11:17:34;;;;;;;2.65;2.00;;;11.20;94.80;;;;;;5091287;28;20047;-43
2024/01/08 11:20:05;;;;;;;3.75;2.53;;;11.30;94.80;;;;;;5091483;28;20040;-43
2024/01/08 11:22:31;;;;;;;3.00;2.13;;;11.30;94.80;;;;;;5091426;28;20474;-42
2024/01/08 11:24:58;;;;;;;4.57;2.22;;;11.30;94.80;;;;;;5091316;28;20040;-44
2024/01/08 11:27:25;;;;;;;2.88;2.13;;;11.30;94.80;;;;;;5091585;28;20039;-44
2024/01/08 11:29:58;;;;;;;2.22;1.85;;;11.40;94.80;;;;;;5091207;28;20048;-44
2024/01/08 11:32:39;;;;;;;4.43;2.28;;;11.40;94.80;;;;;;5092092;28;20092;-41
2024/01/08 11:35:07;;;;;;;2.65;2.10;;;11.40;94.70;;;;;;5090720;28;20031;-43
2024/01/08 11:37:36;;;;;;;2.55;2.15;;;11.40;94.70;;;;;;5092052;28;20032;-43
2024/01/08 11:40:10;;;;;;;2.83;1.92;;;11.40;94.60;;;;;;5091708;28;20032;-44
2024/01/08 11:42:36;;;;;;;4.68;3.20;;;11.50;94.40;;;;;;5091165;28;20013;-44
2024/01/08 11:45:02;;;;;;;4.80;3.47;;;11.50;92.30;;;;;;5095859;28;20036;-44
2024/01/08 11:47:32;;;;;;;6.03;3.30;;;11.40;91.20;;;;;;5095364;28;20036;-41
2024/01/08 11:49:58;;;;;;;6.38;3.33;;;11.40;91.10;;;;;;5095650;28;20024;-43
2024/01/08 11:52:26;;;;;;;5.22;3.20;;;11.40;91.60;;;;;;5095564;28;20028;-44
2024/01/08 11:54:54;;;;;;;4.50;2.88;;;11.40;91.40;;;;;;5095518;28;20039;-41
2024/01/08 11:57:20;;;;;;;4.35;3.03;;;11.40;91.60;;;;;;5095106;28;20024;-41
2024/01/08 11:59:46;;;;;;;5.22;3.17;;;11.40;91.80;;;;;;5095212;28;20043;-44
2024/01/08 12:02:14;;;;;;;5.03;3.15;;;11.40;91.90;;;;;;5095069;28;20031;-44
2024/01/08 12:04:41;;;;;;;5.15;3.10;;;11.40;92.00;;;;;;5095182;28;20117;-43
2024/01/08 12:07:12;;;;;;;4.05;3.00;;;11.50;92.20;;;;;;5096885;28;20020;-44
2024/01/08 12:09:39;;;;;;;4.88;2.78;;;11.50;92.30;;;;;;5094779;28;20474;-44
2024/01/08 12:12:07;;;;;;;3.95;2.70;;;11.50;92.40;;;;;;5094883;28;20028;-44
2024/01/08 12:14:34;;;;;;;5.80;3.00;;;11.50;92.50;;;;;;5094791;28;20039;-44
2024/01/08 12:17:04;;;;;;;4.40;3.00;;;11.50;92.60;;;;;;5094773;28;20501;-44
2024/01/08 12:19:52;;;;;;;3.80;2.60;;;11.60;92.60;;;;;;5095247;28;20052;-44
2024/01/08 12:22:19;;;;;;;4.40;2.80;;;11.70;92.70;;;;;;5095218;28;20460;-44
2024/01/08 12:24:49;;;;;;;4.88;2.70;;;11.70;92.80;;;;;;5095329;28;20046;-43
2024/01/08 12:27:17;;;;;;;3.22;2.35;;;11.70;92.80;;;;;;5096484;28;20052;-44
2024/01/08 12:29:44;;;;;;;3.20;2.55;;;11.70;92.80;;;;;;5094530;28;20052;-39
2024/01/08 12:32:12;;;;;;;3.25;2.40;;;11.80;92.90;;;;;;5095286;28;20028;-44
2024/01/08 12:34:39;;;;;;;4.63;2.80;;;11.80;92.90;;;;;;5094284;28;20032;-44
2024/01/08 12:37:06;;;;;;;3.97;2.70;;;11.80;92.90;;;;;;5094442;28;20024;-40
2024/01/08 12:39:35;;;;;;;4.35;2.72;;;11.80;92.90;;;;;;5094294;28;20058;-44
2024/01/08 12:42:22;;;;;;;4.10;2.60;;;11.90;92.90;;;;;;5094319;28;20034;-43
2024/01/08 12:44:48;;;;;;;3.17;2.17;;;11.90;93.00;;;;;;5094102;28;20032;-44
2024/01/08 12:47:14;;;;;;;2.65;2.17;;;11.90;92.90;;;;;;5094835;28;20077;-41